createdAt,value
2022-09-28T00:01:21.102Z,4.65
2022-09-28T00:06:25.271Z,4.30
2022-09-28T00:11:28.315Z,4.25
2022-09-28T00:16:33.991Z,4.50
2022-09-28T00:21:38.167Z,5.55
2022-09-28T00:26:49.710Z,6.63
2022-09-28T00:31:57.332Z,6.75
2022-09-28T00:37:00.852Z,5.57
2022-09-28T00:42:04.116Z,5.65
2022-09-28T00:47:24.645Z,5.00
2022-09-28T00:52:39.719Z,3.80
2022-09-28T00:57:45.154Z,3.55
2022-09-28T01:02:47.843Z,3.70
2022-09-28T01:07:50.821Z,3.83
2022-09-28T01:12:55.476Z,4.07
2022-09-28T01:18:31.592Z,4.05
2022-09-28T01:23:38.961Z,5.20
2022-09-28T01:28:44.138Z,5.90
2022-09-28T01:33:53.013Z,8.50
2022-09-28T01:38:56.523Z,7.90
2022-09-28T01:44:03.134Z,9.90
2022-09-28T01:49:09.584Z,9.18
2022-09-28T01:54:20.403Z,6.78
2022-09-28T01:59:29.749Z,5.30
2022-09-28T02:05:18.649Z,4.60
2022-09-28T02:10:25.071Z,8.30
2022-09-28T02:15:34.963Z,16.17
2022-09-28T02:20:39.133Z,14.73
2022-09-28T02:25:47.471Z,11.93
2022-09-28T02:30:50.544Z,11.45
2022-09-28T02:35:54.197Z,11.73
2022-09-28T02:41:17.573Z,6.65
2022-09-28T02:46:34.990Z,4.13
2022-09-28T02:52:14.319Z,7.20
2022-09-28T02:57:39.554Z,8.02
2022-09-28T03:02:43.410Z,5.35
2022-09-28T03:07:57.489Z,5.63
2022-09-28T03:18:02.440Z,4.07
2022-09-28T03:23:24.855Z,3.72
2022-09-28T03:28:28.256Z,4.65
2022-09-28T03:33:31.130Z,5.20
2022-09-28T03:38:33.569Z,5.97
2022-09-28T03:43:36.322Z,4.83
2022-09-28T03:48:40.108Z,4.68
2022-09-28T03:53:45.342Z,4.30
2022-09-28T03:58:48.259Z,4.30
2022-09-28T04:03:57.545Z,4.43
2022-09-28T04:09:00.354Z,4.20
2022-09-28T04:14:02.866Z,4.47
2022-09-28T04:19:06.422Z,4.85
2022-09-28T04:24:23.110Z,4.45
2022-09-28T04:29:28.176Z,3.45
2022-09-28T04:34:37.206Z,4.18
2022-09-28T04:39:44.040Z,4.55
2022-09-28T04:44:48.948Z,4.00
2022-09-28T04:49:54.962Z,3.80
2022-09-28T04:55:12.254Z,4.53
2022-09-28T05:00:14.934Z,4.55
2022-09-28T05:05:27.671Z,4.45
2022-09-28T05:10:48.736Z,4.78
2022-09-28T05:15:57.445Z,5.63
2022-09-28T05:21:01.776Z,5.40
2022-09-28T05:26:04.417Z,7.22
2022-09-28T05:31:06.754Z,8.75
2022-09-28T05:36:39.360Z,9.50
2022-09-28T05:46:44.562Z,9.77
2022-09-28T05:51:48.172Z,9.13
2022-09-28T05:56:51.687Z,8.88
2022-09-28T06:01:53.877Z,10.38
2022-09-28T06:06:57.293Z,11.47
2022-09-28T06:11:59.854Z,10.77
2022-09-28T06:17:13.477Z,10.13
2022-09-28T06:22:16.145Z,10.13
2022-09-28T06:27:28.415Z,9.43
2022-09-28T06:32:30.886Z,7.93
2022-09-28T06:37:33.500Z,7.65
2022-09-28T06:42:37.657Z,7.40
2022-09-28T06:48:04.580Z,7.47
2022-09-28T06:53:14.003Z,7.90
2022-09-28T06:58:45.201Z,8.48
2022-09-28T07:03:47.594Z,8.32
2022-09-28T07:09:26.203Z,8.20
2022-09-28T07:14:50.568Z,6.40
2022-09-28T07:19:53.254Z,6.28
2022-09-28T07:24:55.584Z,7.15
2022-09-28T07:30:16.371Z,6.43
2022-09-28T07:35:35.511Z,7.40
2022-09-28T07:40:57.429Z,6.47
2022-09-28T07:46:12.323Z,6.18
2022-09-28T07:51:21.351Z,6.25
2022-09-28T07:56:37.484Z,6.63
2022-09-28T08:01:52.580Z,5.88
2022-09-28T08:11:59.738Z,5.68
2022-09-28T08:17:17.587Z,5.22
2022-09-28T08:22:24.662Z,4.40
2022-09-28T08:27:29.767Z,3.83
2022-09-28T08:32:32.986Z,3.90
2022-09-28T08:37:55.601Z,3.38
2022-09-28T08:43:59.618Z,3.30
2022-09-28T08:49:25.485Z,4.50
2022-09-28T08:54:56.388Z,3.67
2022-09-28T09:00:31.076Z,3.27
2022-09-28T09:05:46.661Z,3.20
2022-09-28T09:11:16.331Z,3.25
2022-09-28T09:16:38.223Z,3.08
2022-09-28T09:22:17.514Z,3.42
2022-09-28T09:27:51.257Z,3.17
2022-09-28T09:33:02.649Z,3.00
2022-09-28T09:38:29.235Z,3.38
2022-09-28T09:44:38.856Z,2.90
2022-09-28T09:50:15.159Z,3.10
2022-09-28T09:55:30.037Z,3.20
2022-09-28T10:00:54.675Z,3.00
2022-09-28T10:06:27.536Z,2.50
2022-09-28T10:11:43.029Z,2.78
2022-09-28T10:16:49.968Z,3.00
2022-09-28T10:22:14.295Z,2.40
2022-09-28T10:27:36.449Z,2.85
2022-09-28T10:32:40.866Z,2.33
2022-09-28T10:37:57.201Z,3.83
2022-09-28T10:43:24.065Z,3.40
2022-09-28T10:48:33.083Z,4.90
2022-09-28T10:53:38.881Z,3.90
2022-09-28T10:59:23.227Z,3.92
2022-09-28T11:04:30.871Z,5.35
2022-09-28T11:09:40.451Z,4.10
2022-09-28T11:14:44.824Z,28.83
2022-09-28T11:19:55.162Z,31.50
2022-09-28T11:25:13.136Z,31.77
2022-09-28T11:30:28.536Z,12.70
2022-09-28T11:36:00.355Z,6.43
2022-09-28T11:41:21.796Z,6.50
2022-09-28T11:46:50.705Z,8.98
2022-09-28T11:51:55.755Z,13.45
2022-09-28T11:57:00.188Z,6.00
2022-09-28T12:02:26.107Z,7.50
2022-09-28T12:07:44.927Z,4.07
2022-09-28T12:13:14.099Z,4.72
2022-09-28T12:18:23.363Z,3.50
2022-09-28T12:23:30.971Z,3.50
2022-09-28T12:28:45.467Z,3.13
2022-09-28T12:33:49.787Z,3.03
2022-09-28T12:39:53.618Z,3.72
2022-09-28T12:45:02.440Z,4.82
2022-09-28T12:55:57.505Z,2.40
2022-09-28T13:01:47.304Z,4.80
2022-09-28T13:06:57.574Z,4.57
2022-09-28T13:12:09.023Z,4.50
2022-09-28T13:17:26.519Z,4.50
2022-09-28T13:23:06.373Z,13.88
2022-09-28T13:28:19.002Z,7.20
2022-09-28T13:33:30.599Z,6.22
2022-09-28T13:38:52.443Z,7.15
2022-09-28T13:44:21.095Z,10.88
2022-09-28T13:49:48.503Z,8.52
2022-09-28T13:55:01.459Z,11.20
2022-09-28T14:00:11.747Z,11.77
2022-09-28T14:05:23.178Z,13.02
2022-09-28T14:10:44.048Z,14.20
2022-09-28T14:15:46.760Z,16.85
2022-09-28T14:21:26.842Z,12.80
2022-09-28T14:26:58.067Z,9.73
2022-09-28T14:32:06.071Z,7.50
2022-09-28T14:37:44.041Z,25.00
2022-09-28T14:43:25.915Z,16.90
2022-09-28T14:48:48.138Z,40.45
2022-09-28T14:53:51.380Z,29.25
2022-09-28T15:04:03.249Z,35.53
2022-09-28T15:09:27.239Z,31.90
2022-09-28T15:14:33.131Z,48.72
2022-09-28T15:19:44.345Z,19.67
2022-09-28T15:25:13.485Z,17.05
2022-09-28T15:30:29.309Z,8.75
2022-09-28T15:35:31.656Z,12.65
2022-09-28T15:40:35.780Z,22.50
2022-09-28T15:45:40.096Z,14.50
2022-09-28T15:50:57.269Z,22.52
2022-09-28T15:56:09.616Z,14.85
2022-09-28T16:01:36.360Z,18.27
2022-09-28T16:06:41.050Z,11.93
2022-09-28T16:11:43.322Z,18.58
2022-09-28T16:16:47.877Z,19.17
2022-09-28T16:21:52.664Z,18.23
2022-09-28T16:26:57.458Z,13.55
2022-09-28T16:32:25.536Z,34.50
2022-09-28T16:37:32.046Z,36.17
2022-09-28T16:42:34.969Z,35.60
2022-09-28T16:47:37.338Z,68.57
2022-09-28T16:53:00.024Z,32.80
2022-09-28T16:58:04.843Z,20.30
2022-09-28T17:03:15.361Z,17.15
2022-09-28T17:08:20.058Z,14.68
2022-09-28T17:13:29.965Z,14.43
2022-09-28T17:18:32.614Z,14.77
2022-09-28T17:23:35.133Z,20.40
2022-09-28T17:28:37.582Z,19.02
2022-09-28T17:33:39.950Z,42.92
2022-09-28T17:38:43.126Z,41.05
2022-09-28T17:43:46.136Z,93.05
2022-09-28T17:48:49.227Z,157.63
2022-09-28T17:53:51.687Z,184.85
2022-09-28T17:58:54.460Z,135.05
2022-09-28T18:03:56.823Z,81.07
2022-09-28T18:08:59.316Z,110.05
2022-09-28T18:14:01.645Z,158.57
2022-09-28T18:19:04.184Z,46.95
2022-09-28T18:24:06.712Z,30.45
2022-09-28T18:29:09.024Z,25.40
2022-09-28T18:34:12.338Z,25.67
2022-09-28T18:39:14.824Z,34.15
2022-09-28T18:44:17.171Z,34.35
2022-09-28T18:49:23.044Z,35.63
2022-09-28T18:54:27.285Z,28.15
2022-09-28T18:59:30.326Z,17.55
2022-09-28T19:04:32.761Z,12.65
2022-09-28T19:09:35.360Z,11.43
2022-09-28T19:14:37.613Z,15.57
2022-09-28T19:19:41.745Z,21.83
2022-09-28T19:24:44.032Z,18.88
2022-09-28T19:29:46.391Z,36.53
2022-09-28T19:34:48.924Z,26.05
2022-09-28T19:39:51.210Z,21.10
2022-09-28T19:44:53.741Z,28.58
2022-09-28T19:49:56.016Z,23.17
2022-09-28T19:54:58.254Z,17.75
2022-09-28T20:00:03.410Z,14.00
2022-09-28T20:05:11.279Z,15.35
2022-09-28T20:10:13.527Z,13.63
2022-09-28T20:15:16.706Z,15.95
2022-09-28T20:20:19.276Z,11.75
2022-09-28T20:25:21.555Z,20.25
2022-09-28T20:30:24.417Z,17.13
2022-09-28T20:35:33.111Z,15.43
2022-09-28T20:40:37.987Z,16.20
2022-09-28T20:45:40.226Z,15.80
2022-09-28T20:50:42.774Z,11.25
2022-09-28T20:55:45.085Z,11.07
2022-09-28T21:00:48.072Z,8.52
2022-09-28T21:16:02.055Z,6.45
2022-09-28T21:21:07.856Z,6.90
2022-09-28T21:26:15.930Z,7.88
2022-09-28T21:31:18.269Z,9.98
2022-09-28T21:36:21.049Z,13.47
2022-09-28T21:41:25.060Z,13.77
2022-09-28T21:51:38.180Z,12.23
2022-09-28T21:56:41.513Z,11.27
2022-09-28T22:01:44.440Z,19.67
2022-09-28T22:06:48.024Z,19.35
2022-09-28T22:11:51.295Z,17.73
2022-09-28T22:16:53.506Z,10.32
2022-09-28T22:21:55.795Z,10.50
2022-09-28T22:26:58.103Z,8.88
2022-09-28T22:32:02.299Z,8.13
2022-09-28T22:37:04.569Z,8.27
2022-09-28T22:42:08.424Z,9.27
2022-09-28T22:47:13.944Z,9.30
2022-09-28T22:52:16.256Z,9.18
2022-09-28T22:57:18.679Z,10.30
2022-09-28T23:02:20.991Z,9.50
2022-09-28T23:07:23.743Z,9.98
2022-09-28T23:12:27.922Z,11.20
2022-09-28T23:17:30.149Z,9.93
2022-09-28T23:22:33.835Z,9.80
2022-09-28T23:32:38.434Z,10.40
2022-09-28T23:37:40.676Z,8.75
2022-09-28T23:42:42.853Z,10.57
2022-09-28T23:47:45.387Z,12.18
2022-09-28T23:52:48.298Z,10.68
2022-09-28T23:57:50.885Z,8.68
